createdAt,value
2023-03-27T00:00:44.509Z,5.3063
2023-03-27T00:01:46.600Z,5.3063
2023-03-27T00:02:48.813Z,5.3063
2023-03-27T00:04:52.999Z,5.3063
2023-03-27T00:05:55.038Z,5.3063
2023-03-27T00:06:57.078Z,5.3063
2023-03-27T00:07:59.239Z,5.3063
2023-03-27T00:09:01.248Z,5.3063
2023-03-27T00:10:03.415Z,5.3063
2023-03-27T00:11:05.529Z,5.3063
2023-03-27T00:12:07.629Z,5.3063
2023-03-27T00:13:09.644Z,5.3063
2023-03-27T00:14:11.696Z,5.3063
2023-03-27T00:15:13.696Z,5.3063
2023-03-27T00:16:15.857Z,5.3063
2023-03-27T00:17:17.956Z,5.3063
2023-03-27T00:18:19.982Z,5.3063
2023-03-27T00:19:22.455Z,5.3063
2023-03-27T00:20:24.818Z,5.3063
2023-03-27T00:21:26.835Z,5.3063
2023-03-27T00:22:28.878Z,5.3063
2023-03-27T00:23:30.920Z,5.3063
2023-03-27T00:24:32.925Z,5.3063
2023-03-27T00:25:35.003Z,5.3063
2023-03-27T00:26:37.088Z,5.3063
2023-03-27T00:27:39.133Z,5.3063
2023-03-27T00:28:41.192Z,5.3063
2023-03-27T00:29:43.254Z,5.3063
2023-03-27T00:30:45.284Z,5.3063
2023-03-27T00:32:49.260Z,5.3063
2023-03-27T00:33:51.285Z,5.3063
2023-03-27T00:34:53.345Z,5.3063
2023-03-27T00:35:55.357Z,5.3063
2023-03-27T00:36:57.417Z,5.3063
2023-03-27T00:37:59.408Z,5.3063
2023-03-27T00:39:01.477Z,5.3063
2023-03-27T00:41:05.435Z,5.3063
2023-03-27T00:42:07.444Z,5.3063
2023-03-27T00:43:09.500Z,5.3063
2023-03-27T00:44:11.552Z,5.3063
2023-03-27T00:45:13.591Z,5.3063
2023-03-27T00:46:15.700Z,5.3063
2023-03-27T00:47:17.895Z,5.3063
2023-03-27T00:48:19.880Z,5.3063
2023-03-27T00:50:23.853Z,5.3063
2023-03-27T00:52:27.825Z,5.3063
2023-03-27T00:53:29.915Z,5.3063
2023-03-27T00:54:31.929Z,5.3063
2023-03-27T00:55:34.022Z,5.3063
2023-03-27T00:56:36.070Z,5.3063
2023-03-27T00:57:38.102Z,5.3063
2023-03-27T00:58:40.131Z,5.3063
2023-03-27T00:59:42.207Z,5.3063
2023-03-27T01:00:44.232Z,5.3063
2023-03-27T01:01:46.335Z,5.3063
2023-03-27T01:02:48.451Z,5.3063
2023-03-27T01:03:50.642Z,5.3063
2023-03-27T01:04:52.714Z,5.3063
2023-03-27T01:05:54.771Z,5.3063
2023-03-27T01:08:01.267Z,5.3063
2023-03-27T01:08:59.405Z,5.3063
2023-03-27T01:10:01.416Z,5.3063
2023-03-27T01:12:05.412Z,5.3063
2023-03-27T01:14:09.328Z,5.3063
2023-03-27T01:15:11.402Z,5.3063
2023-03-27T01:16:13.522Z,5.3063
2023-03-27T01:18:17.502Z,5.3063
2023-03-27T01:19:19.491Z,5.3063
2023-03-27T01:20:21.570Z,5.3063
2023-03-27T01:21:23.600Z,5.3063
2023-03-27T01:22:25.707Z,5.3063
2023-03-27T01:23:35.887Z,5.3063
2023-03-27T01:24:31.289Z,5.3063
2023-03-27T01:25:33.408Z,5.3063
2023-03-27T01:26:37.020Z,5.3063
2023-03-27T01:27:39.309Z,5.3063
2023-03-27T01:28:41.390Z,5.3063
2023-03-27T01:29:43.404Z,5.3063
2023-03-27T01:30:45.494Z,5.3063
2023-03-27T01:31:47.553Z,5.3063
2023-03-27T01:32:49.609Z,5.3063
2023-03-27T01:33:51.716Z,5.3063
2023-03-27T01:35:01.574Z,5.3063
2023-03-27T01:35:57.394Z,5.3063
2023-03-27T01:36:59.487Z,5.3063
2023-03-27T01:38:01.617Z,5.3063
2023-03-27T01:39:03.687Z,5.3063
2023-03-27T01:40:05.752Z,5.3063
2023-03-27T01:41:07.840Z,5.3063
2023-03-27T01:42:09.921Z,5.3063
2023-03-27T01:43:12.017Z,5.3063
2023-03-27T01:44:14.123Z,5.3063
2023-03-27T01:45:16.144Z,5.3063
2023-03-27T01:46:18.261Z,5.3063
2023-03-27T01:47:20.298Z,5.3063
2023-03-27T01:48:22.398Z,5.3063
2023-03-27T01:50:26.390Z,5.3063
2023-03-27T01:51:28.557Z,5.3063
2023-03-27T01:52:30.593Z,5.3063
2023-03-27T01:53:32.639Z,5.3063
2023-03-27T01:54:34.810Z,5.3063
2023-03-27T01:55:36.911Z,5.3063
2023-03-27T01:56:39.022Z,5.3063
2023-03-27T01:57:49.249Z,5.3063
2023-03-27T01:58:44.633Z,5.3063
2023-03-27T01:59:46.726Z,5.3063
2023-03-27T02:01:50.719Z,5.3063
2023-03-27T02:02:52.834Z,5.3063
2023-03-27T02:03:54.882Z,5.3063
2023-03-27T02:04:57.012Z,5.3063
2023-03-27T02:05:59.102Z,5.3063
2023-03-27T02:07:01.144Z,5.3063
2023-03-27T02:08:03.257Z,5.3063
2023-03-27T02:09:05.318Z,5.3063
2023-03-27T02:10:07.436Z,5.3063
2023-03-27T02:11:09.525Z,5.3063
2023-03-27T02:12:11.631Z,5.3063
2023-03-27T02:13:13.642Z,5.3063
2023-03-27T02:14:15.750Z,5.3063
2023-03-27T02:15:23.339Z,5.3063
2023-03-27T02:16:21.522Z,5.3063
2023-03-27T02:17:23.852Z,5.3063
2023-03-27T02:18:25.927Z,5.3063
2023-03-27T02:19:28.059Z,5.3063
2023-03-27T02:20:30.089Z,5.3063
2023-03-27T02:21:32.194Z,5.3063
2023-03-27T02:22:37.426Z,5.3063
2023-03-27T02:23:35.873Z,5.3063
2023-03-27T02:25:39.954Z,5.3063
2023-03-27T02:26:41.989Z,5.3063
2023-03-27T02:27:44.153Z,5.3063
2023-03-27T02:28:46.243Z,5.3063
2023-03-27T02:29:48.366Z,5.3063
2023-03-27T02:31:05.771Z,5.3063
2023-03-27T02:31:54.018Z,5.3063
2023-03-27T02:32:56.068Z,5.3063
2023-03-27T02:33:58.154Z,5.3063
2023-03-27T02:35:00.251Z,5.3063
2023-03-27T02:36:02.311Z,5.3063
2023-03-27T02:37:04.418Z,5.3063
2023-03-27T02:38:06.446Z,5.3063
2023-03-27T02:39:08.596Z,5.3063
2023-03-27T02:40:10.709Z,5.3063
2023-03-27T02:41:12.808Z,5.3063
2023-03-27T02:42:14.922Z,5.3063
2023-03-27T02:43:16.970Z,5.3063
2023-03-27T02:45:20.970Z,5.3063
2023-03-27T02:47:24.992Z,5.3063
2023-03-27T02:48:27.074Z,5.3063
2023-03-27T02:49:29.194Z,5.3063
2023-03-27T02:50:31.310Z,5.3063
2023-03-27T02:51:33.386Z,5.3063
2023-03-27T02:52:35.496Z,5.3063
2023-03-27T02:53:37.546Z,5.3063
2023-03-27T02:54:39.656Z,5.3063
2023-03-27T02:55:41.759Z,5.3063
2023-03-27T02:56:43.880Z,5.3063
2023-03-27T02:57:51.807Z,5.3063
2023-03-27T02:58:49.588Z,5.3063
2023-03-27T02:59:51.665Z,5.3063
2023-03-27T03:00:53.783Z,5.3063
2023-03-27T03:01:55.995Z,5.3063
2023-03-27T03:02:58.098Z,5.3063
2023-03-27T03:04:00.289Z,5.3063
2023-03-27T03:05:02.456Z,5.3063
2023-03-27T03:06:04.489Z,5.3063
2023-03-27T03:07:06.601Z,5.3063
2023-03-27T03:08:08.668Z,5.3063
2023-03-27T03:09:10.792Z,5.3063
2023-03-27T03:10:12.822Z,5.3063
2023-03-27T03:11:15.097Z,5.3063
2023-03-27T03:12:17.144Z,5.3063
2023-03-27T03:13:19.270Z,5.3063
2023-03-27T03:14:21.370Z,5.3063
2023-03-27T03:15:23.507Z,5.3063
2023-03-27T03:16:25.609Z,5.3063
2023-03-27T03:17:27.661Z,5.3063
2023-03-27T03:18:29.721Z,5.3063
2023-03-27T03:19:31.830Z,5.3063
2023-03-27T03:20:33.892Z,5.3063
2023-03-27T03:21:35.969Z,5.3063
2023-03-27T03:22:38.045Z,5.3063
2023-03-27T03:23:40.094Z,5.3063
2023-03-27T03:25:44.190Z,5.3063
2023-03-27T03:26:46.211Z,5.3063
2023-03-27T03:27:48.521Z,5.3063
2023-03-27T03:29:00.367Z,5.3063
2023-03-27T03:29:54.157Z,5.3063
2023-03-27T03:30:56.668Z,5.3063
2023-03-27T03:31:59.166Z,5.3063
2023-03-27T03:33:01.515Z,5.3063
2023-03-27T03:34:03.641Z,5.3063
2023-03-27T03:35:05.782Z,5.3063
2023-03-27T03:36:07.943Z,5.3063
2023-03-27T03:38:11.968Z,5.3063
2023-03-27T03:40:15.973Z,5.3063
2023-03-27T03:41:18.089Z,5.3063
2023-03-27T03:42:22.312Z,5.3063
2023-03-27T03:43:20.772Z,5.3063
2023-03-27T03:44:22.887Z,5.3063
2023-03-27T03:45:24.953Z,5.3063
2023-03-27T03:46:27.194Z,5.3063
2023-03-27T03:47:29.238Z,5.3063
2023-03-27T03:48:31.370Z,5.3063
2023-03-27T03:49:33.526Z,5.3063
2023-03-27T03:50:35.558Z,5.3063
2023-03-27T03:51:37.666Z,5.3063
2023-03-27T03:52:39.711Z,5.3063
2023-03-27T03:54:44.966Z,5.3063
2023-03-27T03:55:44.455Z,5.3063
2023-03-27T03:56:46.636Z,5.3063
2023-03-27T03:57:48.809Z,5.3063
2023-03-27T03:58:50.954Z,5.3063
2023-03-27T03:59:52.982Z,5.3063
2023-03-27T04:00:55.310Z,5.3063
2023-03-27T04:01:57.573Z,5.3063
2023-03-27T04:02:59.863Z,5.3063
2023-03-27T04:04:01.911Z,5.3063
2023-03-27T04:05:08.697Z,5.3063
2023-03-27T04:06:07.599Z,5.3063
2023-03-27T04:07:09.731Z,5.3063
2023-03-27T04:08:11.762Z,5.3063
2023-03-27T04:09:13.879Z,5.3063
2023-03-27T04:10:16.022Z,5.3063
2023-03-27T04:15:25.797Z,5.3063
2023-03-27T04:16:27.994Z,5.3063
2023-03-27T04:17:30.191Z,5.3063
2023-03-27T04:18:32.405Z,5.3063
2023-03-27T04:19:34.813Z,5.3063
2023-03-27T04:20:36.935Z,5.3063
2023-03-27T04:21:39.030Z,5.3063
2023-03-27T04:22:41.085Z,5.3063
2023-03-27T04:23:43.194Z,5.3063
2023-03-27T04:24:45.313Z,5.3063
2023-03-27T04:25:47.395Z,5.3063
2023-03-27T04:26:49.512Z,5.3063
2023-03-27T04:27:51.612Z,5.3063
2023-03-27T04:29:55.661Z,5.3063
2023-03-27T04:30:57.986Z,5.3063
2023-03-27T04:32:00.669Z,5.3063
2023-03-27T04:33:02.850Z,5.3063
2023-03-27T04:34:04.355Z,5.3063
2023-03-27T04:35:06.462Z,5.3063
2023-03-27T04:36:08.743Z,5.3063
2023-03-27T04:37:10.891Z,5.3063
2023-03-27T04:38:12.952Z,5.3063
2023-03-27T04:39:15.130Z,5.3063
2023-03-27T04:40:17.253Z,5.3063
2023-03-27T04:41:19.355Z,5.3063
2023-03-27T04:42:21.442Z,5.3063
2023-03-27T04:43:23.542Z,5.3063
2023-03-27T04:44:25.676Z,5.3063
2023-03-27T04:45:27.733Z,5.3063
2023-03-27T04:46:29.937Z,5.3063
2023-03-27T04:47:32.028Z,5.3063
2023-03-27T04:48:34.222Z,5.3063
2023-03-27T04:49:36.390Z,5.3063
2023-03-27T04:50:38.437Z,5.3063
2023-03-27T04:51:40.534Z,5.3063
2023-03-27T04:52:42.601Z,5.3063
2023-03-27T04:54:46.882Z,5.3063
2023-03-27T04:55:48.992Z,5.3063
2023-03-27T04:56:51.122Z,5.3063
2023-03-27T04:57:53.240Z,5.3063
2023-03-27T04:58:55.318Z,5.3063
2023-03-27T04:59:57.400Z,5.3063
2023-03-27T05:00:59.767Z,5.3063
2023-03-27T05:03:04.773Z,5.3063
2023-03-27T05:05:09.265Z,5.3063
2023-03-27T05:06:11.492Z,5.3063
2023-03-27T05:07:13.902Z,5.3063
2023-03-27T05:08:16.147Z,5.3063
2023-03-27T05:09:18.302Z,5.3063
2023-03-27T05:10:21.690Z,5.3063
2023-03-27T05:11:24.325Z,5.3063
2023-03-27T05:12:26.603Z,5.3063
2023-03-27T05:13:29.049Z,5.3063
2023-03-27T05:14:31.246Z,5.3063
2023-03-27T05:15:33.441Z,5.3063
2023-03-27T05:16:35.907Z,5.3063
2023-03-27T05:17:38.198Z,5.3063
2023-03-27T05:18:41.817Z,5.3063
2023-03-27T05:19:44.332Z,5.3063
2023-03-27T05:20:46.731Z,5.3063
2023-03-27T05:21:49.256Z,5.3063
2023-03-27T05:22:51.505Z,5.3063
2023-03-27T05:23:53.794Z,5.3063
2023-03-27T05:24:56.095Z,5.3063
2023-03-27T05:26:00.676Z,5.3063
2023-03-27T05:26:58.760Z,5.3063
2023-03-27T05:28:00.949Z,5.3063
2023-03-27T05:29:03.119Z,5.3063
2023-03-27T05:30:05.279Z,5.3063
2023-03-27T05:31:07.525Z,5.3063
2023-03-27T05:32:10.243Z,5.3063
2023-03-27T05:33:12.387Z,5.3063
2023-03-27T05:35:16.592Z,5.3063
2023-03-27T05:36:18.905Z,5.3063
2023-03-27T05:37:20.978Z,5.3063
2023-03-27T05:38:23.093Z,5.3063
2023-03-27T05:39:25.260Z,5.3063
2023-03-27T05:40:27.502Z,5.3063
2023-03-27T05:41:29.823Z,5.3063
2023-03-27T05:42:31.934Z,5.3063
2023-03-27T05:45:38.019Z,5.3063
2023-03-27T05:46:40.183Z,5.3063
2023-03-27T05:47:42.301Z,5.3063
2023-03-27T05:48:44.386Z,5.3063
2023-03-27T05:49:46.496Z,5.3063
2023-03-27T05:50:48.694Z,5.3063
2023-03-27T05:51:50.751Z,5.3063
2023-03-27T05:52:52.831Z,5.3063
2023-03-27T05:53:55.017Z,5.3063
2023-03-27T05:54:57.089Z,5.3063
2023-03-27T05:56:02.841Z,5.3063
2023-03-27T05:57:00.947Z,5.3063
2023-03-27T05:58:03.066Z,5.3063
2023-03-27T05:59:05.112Z,5.3063
2023-03-27T06:00:07.219Z,5.3063
2023-03-27T06:01:09.307Z,5.3063
2023-03-27T06:02:11.423Z,5.3063
2023-03-27T06:03:13.704Z,5.3063
2023-03-27T06:04:16.068Z,5.3063
2023-03-27T06:05:18.163Z,5.3063
2023-03-27T06:06:20.321Z,5.3063
2023-03-27T06:07:22.599Z,5.3063
2023-03-27T06:08:24.919Z,5.3063
2023-03-27T06:09:26.988Z,5.3063
2023-03-27T06:10:29.119Z,5.3063
2023-03-27T06:11:31.208Z,5.3063
2023-03-27T06:12:33.426Z,5.3063
2023-03-27T06:13:35.532Z,5.3063
2023-03-27T06:14:37.637Z,5.3063
2023-03-27T06:15:39.778Z,5.3063
2023-03-27T06:16:41.885Z,5.3063
2023-03-27T06:17:44.182Z,5.3063
2023-03-27T06:18:46.176Z,5.3063
2023-03-27T06:19:48.288Z,5.3063
2023-03-27T06:20:50.376Z,5.3063
2023-03-27T06:21:52.494Z,5.3063
2023-03-27T06:23:56.498Z,5.3063
2023-03-27T06:24:58.565Z,5.3063
2023-03-27T06:26:00.680Z,5.3063
2023-03-27T06:27:02.725Z,5.3063
2023-03-27T06:28:04.923Z,5.3063
2023-03-27T06:29:08.176Z,5.3063
2023-03-27T06:30:10.981Z,5.3063
2023-03-27T06:31:13.090Z,5.3063
2023-03-27T06:32:15.183Z,5.3063
2023-03-27T06:33:17.413Z,5.3063
2023-03-27T06:34:19.506Z,5.3063
2023-03-27T06:35:21.609Z,5.3063
2023-03-27T06:37:25.627Z,5.3063
2023-03-27T06:38:27.722Z,5.3063
2023-03-27T06:39:29.791Z,5.3063
2023-03-27T06:40:31.801Z,5.3063
2023-03-27T06:41:33.861Z,5.3063
2023-03-27T06:42:35.983Z,5.3063
2023-03-27T06:43:38.076Z,5.3063
2023-03-27T06:45:42.091Z,5.3063
2023-03-27T06:46:45.958Z,5.3063
2023-03-27T06:47:54.338Z,5.3063
2023-03-27T06:49:53.803Z,5.3063
2023-03-27T06:50:56.221Z,5.3063
2023-03-27T06:51:58.506Z,5.3063
2023-03-27T06:53:00.712Z,5.3063
2023-03-27T06:54:02.805Z,5.3063
2023-03-27T06:55:04.914Z,5.3063
2023-03-27T06:56:06.980Z,5.3063
2023-03-27T06:57:09.120Z,5.3063
2023-03-27T06:58:11.152Z,5.3063
2023-03-27T07:00:15.254Z,5.3063
2023-03-27T07:01:17.301Z,5.3063
2023-03-27T07:02:19.433Z,5.3063
2023-03-27T07:03:21.550Z,5.3063
2023-03-27T07:04:23.662Z,5.3063
2023-03-27T07:05:25.741Z,5.3063
2023-03-27T07:06:27.855Z,5.3063
2023-03-27T07:07:29.925Z,5.3063
2023-03-27T07:09:33.965Z,5.3063
2023-03-27T07:10:36.031Z,5.3063
2023-03-27T07:11:38.138Z,5.3063
2023-03-27T07:12:40.214Z,5.3063
2023-03-27T07:13:42.332Z,5.3063
2023-03-27T07:14:44.498Z,5.3063
2023-03-27T07:15:46.558Z,5.3063
2023-03-27T07:16:48.689Z,5.3063
2023-03-27T07:17:50.799Z,5.3063
2023-03-27T07:18:52.930Z,5.3063
2023-03-27T07:19:54.978Z,5.3063
2023-03-27T07:20:57.240Z,5.3063
2023-03-27T07:21:59.474Z,5.3063
2023-03-27T07:23:01.610Z,5.1297
2023-03-27T07:24:03.933Z,4.4419
2023-03-27T07:25:06.288Z,4.3009
2023-03-27T07:26:08.555Z,4.3980
2023-03-27T07:27:10.862Z,4.5397
2023-03-27T07:28:13.113Z,4.5529
2023-03-27T07:29:15.455Z,4.4631
2023-03-27T07:30:17.712Z,4.4902
2023-03-27T07:31:35.151Z,4.5714
2023-03-27T07:32:36.246Z,4.5870
2023-03-27T07:34:29.757Z,4.4108
2023-03-27T07:35:32.134Z,4.3862
2023-03-27T07:36:34.426Z,4.3120
2023-03-27T07:37:38.012Z,4.3820
2023-03-27T07:38:40.617Z,4.6036
2023-03-27T07:39:42.879Z,4.4066
2023-03-27T07:40:45.195Z,4.3160
2023-03-27T07:41:47.479Z,4.5077
2023-03-27T07:42:49.752Z,4.3723
2023-03-27T07:43:52.080Z,4.3526
2023-03-27T07:44:54.335Z,4.4303
2023-03-27T07:45:56.829Z,4.6038
2023-03-27T07:49:04.458Z,4.5947
2023-03-27T07:51:13.723Z,4.6963
2023-03-27T07:52:13.771Z,4.9543
2023-03-27T07:53:33.632Z,4.9290
2023-03-27T07:54:17.039Z,4.9419
2023-03-27T07:55:19.351Z,5.0258
2023-03-27T07:56:21.633Z,5.2060
2023-03-27T07:57:23.898Z,5.0488
2023-03-27T07:58:26.416Z,5.0273
2023-03-27T07:59:28.952Z,4.9517
2023-03-27T08:00:31.382Z,4.7436
2023-03-27T08:01:33.864Z,4.7980
2023-03-27T08:02:36.222Z,4.5686
2023-03-27T08:03:38.525Z,4.7324
2023-03-27T08:05:43.025Z,4.4974
2023-03-27T08:06:45.303Z,4.5609
2023-03-27T08:08:49.751Z,4.4743
2023-03-27T08:09:52.008Z,4.6021
2023-03-27T08:10:54.341Z,4.5962
2023-03-27T08:11:56.707Z,4.6422
2023-03-27T08:12:58.974Z,4.6519
2023-03-27T08:14:01.290Z,5.1638
2023-03-27T08:15:03.576Z,5.0757
2023-03-27T08:16:05.887Z,5.3357
2023-03-27T08:17:15.746Z,5.4938
2023-03-27T08:18:12.073Z,5.3217
2023-03-27T08:19:14.380Z,5.2247
2023-03-27T08:20:16.733Z,4.7810
2023-03-27T08:21:19.051Z,4.6103
2023-03-27T08:22:21.270Z,4.3385
2023-03-27T08:23:23.557Z,4.4337
2023-03-27T08:24:25.827Z,4.4865
2023-03-27T08:25:28.104Z,4.4291
2023-03-27T08:26:30.473Z,4.3515
2023-03-27T08:27:32.769Z,4.4711
2023-03-27T08:28:34.974Z,4.4240
2023-03-27T08:29:37.264Z,4.5012
2023-03-27T08:30:39.581Z,4.4558
2023-03-27T08:31:41.856Z,4.4039
2023-03-27T08:32:44.223Z,4.1491
2023-03-27T08:33:46.566Z,4.1791
2023-03-27T08:34:48.865Z,4.1238
2023-03-27T08:35:51.215Z,4.2149
2023-03-27T08:36:53.630Z,4.1760
2023-03-27T08:37:55.944Z,4.1060
2023-03-27T08:41:02.567Z,4.1703
2023-03-27T08:42:04.913Z,4.1955
2023-03-27T08:43:07.222Z,4.2712
2023-03-27T08:44:09.475Z,4.2405
2023-03-27T08:45:11.754Z,4.2556
2023-03-27T08:50:22.603Z,4.2630
2023-03-27T08:51:24.865Z,4.3776
2023-03-27T08:52:27.172Z,4.2941
2023-03-27T08:53:29.585Z,4.2813
2023-03-27T08:54:31.898Z,4.0797
2023-03-27T08:55:34.230Z,4.0383
2023-03-27T08:56:36.559Z,4.2248
2023-03-27T08:57:38.899Z,4.3421
2023-03-27T08:58:41.241Z,4.3090
2023-03-27T08:59:43.473Z,4.3814
2023-03-27T09:00:45.775Z,4.3694
2023-03-27T09:01:48.077Z,4.4560
2023-03-27T09:02:50.432Z,4.3727
2023-03-27T09:03:52.842Z,4.4720
2023-03-27T09:04:55.126Z,4.6008
2023-03-27T09:06:59.578Z,4.2741
2023-03-27T09:08:01.950Z,4.3139
2023-03-27T09:09:04.203Z,4.4659
2023-03-27T09:11:08.692Z,4.7095
2023-03-27T09:13:13.139Z,4.4711
2023-03-27T09:14:15.501Z,4.4070
2023-03-27T09:15:17.805Z,4.3488
2023-03-27T09:16:20.151Z,4.1754
2023-03-27T09:17:22.383Z,4.2020
2023-03-27T09:18:24.664Z,3.8945
2023-03-27T09:19:26.978Z,4.0373
2023-03-27T09:20:29.272Z,3.9467
2023-03-27T09:21:31.563Z,3.9929
2023-03-27T09:22:33.895Z,3.9338
2023-03-27T09:23:36.156Z,4.0011
2023-03-27T09:24:38.420Z,4.0816
2023-03-27T09:25:40.761Z,4.1192
2023-03-27T09:26:43.063Z,4.2905
2023-03-27T09:27:45.289Z,4.2412
2023-03-27T09:28:48.981Z,4.5235
2023-03-27T09:29:51.330Z,4.4097
2023-03-27T09:30:55.125Z,4.4859
2023-03-27T09:31:57.367Z,4.4497
2023-03-27T09:32:59.731Z,4.2416
2023-03-27T09:34:02.561Z,4.1800
2023-03-27T09:35:04.911Z,4.1659
2023-03-27T09:36:07.219Z,4.3566
2023-03-27T09:37:09.512Z,4.3696
2023-03-27T09:38:11.778Z,4.1905
2023-03-27T09:39:14.111Z,4.0839
2023-03-27T09:40:16.487Z,4.0864
2023-03-27T09:41:18.795Z,4.1957
2023-03-27T09:42:21.068Z,4.3149
2023-03-27T09:43:24.542Z,4.5787
2023-03-27T09:44:27.156Z,4.6220
2023-03-27T09:45:29.478Z,4.6118
2023-03-27T09:46:31.843Z,4.7477
2023-03-27T09:47:34.144Z,5.1492
2023-03-27T09:48:36.409Z,5.0645
2023-03-27T09:49:38.736Z,4.5867
2023-03-27T09:50:41.028Z,4.3105
2023-03-27T09:51:43.383Z,4.6511
2023-03-27T09:52:45.659Z,4.9397
2023-03-27T09:53:47.946Z,5.1709
2023-03-27T09:54:50.264Z,5.3950
2023-03-27T09:55:52.591Z,5.6218
2023-03-27T09:56:54.855Z,6.4023
2023-03-27T09:57:57.193Z,6.9278
2023-03-27T09:58:59.475Z,6.8149
2023-03-27T10:00:01.754Z,6.9284
2023-03-27T10:01:04.043Z,6.6693
2023-03-27T10:03:08.672Z,6.4075
2023-03-27T10:04:10.972Z,6.5265
2023-03-27T10:05:13.256Z,7.3369
2023-03-27T10:06:15.538Z,7.3152
2023-03-27T10:07:17.859Z,6.2583
2023-03-27T10:08:20.109Z,6.0449
2023-03-27T10:09:22.403Z,6.2488
2023-03-27T10:10:24.644Z,5.9026
2023-03-27T10:11:26.937Z,5.6512
2023-03-27T10:12:29.201Z,5.2415
2023-03-27T10:13:31.501Z,5.2598
2023-03-27T10:14:33.740Z,5.4881
2023-03-27T10:15:35.995Z,5.0031
2023-03-27T10:16:38.332Z,5.1154
2023-03-27T10:18:42.757Z,5.6119
2023-03-27T10:19:44.983Z,5.5114
2023-03-27T10:20:47.319Z,5.2699
2023-03-27T10:21:49.638Z,5.6371
2023-03-27T10:22:53.352Z,5.8217
2023-03-27T10:23:52.660Z,6.4459
2023-03-27T10:24:54.912Z,7.2379
2023-03-27T10:25:57.209Z,7.2696
2023-03-27T10:26:59.449Z,7.0705
2023-03-27T10:28:01.730Z,5.7462
2023-03-27T10:29:04.004Z,5.5337
2023-03-27T10:31:08.397Z,5.8783
2023-03-27T10:32:10.708Z,5.5802
2023-03-27T10:33:13.005Z,5.5041
2023-03-27T10:34:15.271Z,5.4753
2023-03-27T10:35:17.570Z,5.6624
2023-03-27T10:37:21.954Z,6.1503
2023-03-27T10:38:24.294Z,5.7338
2023-03-27T10:39:26.525Z,5.5369
2023-03-27T10:40:28.768Z,5.4704
2023-03-27T10:41:31.072Z,5.5270
2023-03-27T10:42:33.407Z,5.7458
2023-03-27T10:43:35.668Z,6.0330
2023-03-27T10:44:37.949Z,5.9119
2023-03-27T10:46:42.333Z,6.0664
2023-03-27T10:47:44.638Z,6.0109
2023-03-27T10:48:46.916Z,5.8103
2023-03-27T10:50:51.277Z,6.1757
2023-03-27T10:51:53.518Z,6.4641
2023-03-27T10:52:55.816Z,6.2383
2023-03-27T10:53:58.196Z,6.0664
2023-03-27T10:55:00.486Z,6.2985
2023-03-27T10:56:02.848Z,6.6079
2023-03-27T10:57:05.135Z,6.6461
2023-03-27T10:58:07.452Z,6.2552
2023-03-27T10:59:09.696Z,6.0878
2023-03-27T11:01:14.086Z,5.9978
2023-03-27T11:02:16.413Z,6.1294
2023-03-27T11:03:18.719Z,5.8001
2023-03-27T11:04:21.075Z,5.9024
2023-03-27T11:05:23.312Z,5.9747
2023-03-27T11:07:27.793Z,5.9165
2023-03-27T11:08:30.054Z,6.1772
2023-03-27T11:09:32.347Z,6.6442
2023-03-27T11:10:34.670Z,6.6354
2023-03-27T11:11:36.928Z,6.4363
2023-03-27T11:12:39.221Z,6.8179
2023-03-27T11:13:41.517Z,6.5059
2023-03-27T11:14:43.740Z,6.6497
2023-03-27T11:15:46.067Z,6.3155
2023-03-27T11:16:48.352Z,6.0445
2023-03-27T11:17:50.987Z,6.3064
2023-03-27T11:18:53.268Z,5.9663
2023-03-27T11:19:55.594Z,6.3720
2023-03-27T11:20:57.922Z,6.7420
2023-03-27T11:22:00.267Z,7.1086
2023-03-27T11:23:02.548Z,6.7407
2023-03-27T11:24:04.810Z,6.7954
2023-03-27T11:25:07.123Z,6.8179
2023-03-27T11:26:09.392Z,6.5278
2023-03-27T11:27:13.302Z,6.2249
2023-03-27T11:28:12.513Z,6.2130
2023-03-27T11:29:14.737Z,6.0328
2023-03-27T11:30:16.998Z,5.8972
2023-03-27T11:31:19.336Z,6.0815
2023-03-27T11:32:21.630Z,5.9255
2023-03-27T11:33:23.896Z,6.0904
2023-03-27T11:34:29.136Z,6.1070
2023-03-27T11:35:27.377Z,6.1189
2023-03-27T11:36:29.682Z,6.1959
2023-03-27T11:37:31.968Z,6.3920
2023-03-27T11:38:34.188Z,6.2631
2023-03-27T11:39:36.530Z,6.7536
2023-03-27T11:40:38.750Z,7.2438
2023-03-27T11:41:41.028Z,7.5786
2023-03-27T11:42:43.282Z,6.5063
2023-03-27T11:45:49.837Z,6.1267
2023-03-27T11:46:52.122Z,6.4450
2023-03-27T11:49:58.680Z,7.1849
2023-03-27T11:51:00.982Z,6.9707
2023-03-27T11:52:03.219Z,6.0725
2023-03-27T11:53:05.489Z,5.8194
2023-03-27T11:54:07.802Z,6.0109
2023-03-27T11:55:10.125Z,6.0683
2023-03-27T11:56:12.387Z,5.9567
2023-03-27T11:57:14.706Z,6.1337
2023-03-27T11:58:16.941Z,6.2190
2023-03-27T11:59:19.194Z,6.1746
2023-03-27T12:00:21.498Z,6.4153
2023-03-27T12:01:23.752Z,6.3285
2023-03-27T12:02:26.081Z,6.2049
2023-03-27T12:03:28.523Z,6.4466
2023-03-27T12:04:30.871Z,6.3886
2023-03-27T12:05:33.147Z,6.9144
2023-03-27T12:06:35.387Z,6.8130
2023-03-27T12:07:40.426Z,7.1792
2023-03-27T12:08:41.949Z,6.7163
2023-03-27T12:09:44.898Z,6.5715
2023-03-27T12:10:47.152Z,6.6627
2023-03-27T12:11:49.474Z,7.0020
2023-03-27T12:12:51.753Z,7.0048
2023-03-27T12:14:00.955Z,6.9949
2023-03-27T12:14:57.700Z,6.9954
2023-03-27T12:15:59.994Z,7.1149
2023-03-27T12:17:02.382Z,7.1901
2023-03-27T12:18:04.630Z,7.1628
2023-03-27T12:19:17.366Z,7.1357
2023-03-27T12:20:10.622Z,6.8524
2023-03-27T12:23:18.747Z,6.0974
2023-03-27T12:24:20.998Z,5.8566
2023-03-27T12:26:25.487Z,6.1326
2023-03-27T12:27:27.795Z,6.1175
2023-03-27T12:28:30.046Z,6.2373
2023-03-27T12:29:32.353Z,6.1145
2023-03-27T12:30:34.666Z,6.1788
2023-03-27T12:33:42.796Z,6.1629
2023-03-27T12:34:45.038Z,6.1044
2023-03-27T12:35:47.452Z,5.9253
2023-03-27T12:36:49.723Z,5.8135
2023-03-27T12:37:52.080Z,5.9697
2023-03-27T12:38:54.366Z,5.8991
2023-03-27T12:39:56.764Z,5.9602
2023-03-27T12:40:59.138Z,5.8394
2023-03-27T12:42:01.608Z,5.9346
2023-03-27T12:43:03.882Z,6.1315
2023-03-27T12:44:06.190Z,6.0349
2023-03-27T12:45:08.481Z,5.6865
2023-03-27T12:48:15.078Z,6.4006
2023-03-27T12:49:17.356Z,6.6728
2023-03-27T12:51:21.813Z,6.8208
2023-03-27T12:52:24.124Z,6.5566
2023-03-27T12:53:26.368Z,6.5677
2023-03-27T12:54:29.644Z,6.5274
2023-03-27T12:55:32.023Z,6.7220
2023-03-27T12:56:34.421Z,6.5141
2023-03-27T12:57:36.943Z,6.3346
2023-03-27T12:58:39.364Z,6.4515
2023-03-27T12:59:41.661Z,6.3121
2023-03-27T13:00:43.938Z,6.4120
2023-03-27T13:01:52.288Z,6.0521
2023-03-27T13:02:50.202Z,6.0787
2023-03-27T13:04:54.642Z,6.2659
2023-03-27T13:05:56.930Z,6.3739
2023-03-27T13:06:59.194Z,6.4464
2023-03-27T13:08:01.458Z,6.0801
2023-03-27T13:09:03.800Z,5.7452
2023-03-27T13:12:10.377Z,6.0723
2023-03-27T13:13:12.667Z,6.1292
2023-03-27T13:14:14.929Z,6.2099
2023-03-27T13:15:17.254Z,6.1736
2023-03-27T13:16:19.632Z,6.0985
2023-03-27T13:20:28.376Z,6.0946
2023-03-27T13:21:30.712Z,5.8986
2023-03-27T13:22:37.090Z,5.8519
2023-03-27T13:23:35.277Z,6.1440
2023-03-27T13:24:37.581Z,6.2320
2023-03-27T13:25:39.854Z,6.5726
2023-03-27T13:26:42.133Z,6.3943
2023-03-27T13:27:44.479Z,6.3106
2023-03-27T13:28:47.022Z,6.3045
2023-03-27T13:29:49.288Z,6.1301
2023-03-27T13:30:51.602Z,6.2593
2023-03-27T13:31:53.918Z,6.1738
2023-03-27T13:32:56.160Z,6.5007
2023-03-27T13:33:58.465Z,7.0291
2023-03-27T13:35:00.825Z,7.8191
2023-03-27T13:36:03.128Z,9.7858
2023-03-27T13:37:06.634Z,9.8447
2023-03-27T13:38:09.680Z,9.7938
2023-03-27T13:39:11.952Z,9.5090
2023-03-27T13:40:14.218Z,9.5268
2023-03-27T13:42:18.547Z,9.2828
2023-03-27T13:43:20.795Z,9.5405
2023-03-27T13:44:23.094Z,9.3570
2023-03-27T13:45:25.336Z,8.9630
2023-03-27T13:46:27.583Z,9.9456
2023-03-27T13:47:29.819Z,9.5563
2023-03-27T13:48:31.992Z,9.1665
2023-03-27T13:49:34.188Z,9.6416
2023-03-27T13:50:36.391Z,9.5014
2023-03-27T13:51:38.646Z,10.6550
2023-03-27T13:52:40.886Z,10.6123
2023-03-27T13:53:43.090Z,10.0036
2023-03-27T13:54:45.326Z,7.7258
2023-03-27T13:55:47.465Z,7.0211
2023-03-27T13:56:49.801Z,7.1550
2023-03-27T13:58:54.265Z,6.7811
2023-03-27T13:59:56.493Z,6.4544
2023-03-27T14:00:58.922Z,6.3174
2023-03-27T14:02:01.303Z,6.2039
2023-03-27T14:03:03.598Z,6.0641
2023-03-27T14:04:06.007Z,6.0355
2023-03-27T14:05:08.340Z,6.0109
2023-03-27T14:06:10.619Z,6.1059
2023-03-27T14:08:14.954Z,6.1671
2023-03-27T14:09:17.265Z,6.6598
2023-03-27T14:12:23.810Z,7.4680
2023-03-27T14:13:26.130Z,7.6570
2023-03-27T14:14:28.417Z,6.8421
2023-03-27T14:15:30.813Z,6.7985
2023-03-27T14:16:33.092Z,6.7596
2023-03-27T14:17:35.349Z,6.5249
2023-03-27T14:18:37.665Z,6.4559
2023-03-27T14:19:39.918Z,6.2371
2023-03-27T14:20:42.315Z,6.1166